sensor_id;sensor_type;location;lat;lon;timestamp;P1;durP1;ratioP1;P2;durP2;ratioP2
1563;SDS011;775;51.958;7.976;2023-03-01T00:01:25;15.20;;;6.80;;
1563;SDS011;775;51.958;7.976;2023-03-01T00:03:53;16.10;;;6.70;;
1563;SDS011;775;51.958;7.976;2023-03-01T00:06:21;17.30;;;6.80;;
1563;SDS011;775;51.958;7.976;2023-03-01T00:08:48;15.63;;;7.27;;
1563;SDS011;775;51.958;7.976;2023-03-01T00:11:16;18.13;;;7.10;;
1563;SDS011;775;51.958;7.976;2023-03-01T00:13:46;15.13;;;7.40;;
1563;SDS011;775;51.958;7.976;2023-03-01T00:16:15;16.43;;;6.40;;
1563;SDS011;775;51.958;7.976;2023-03-01T00:18:43;14.23;;;6.23;;
1563;SDS011;775;51.958;7.976;2023-03-01T00:21:10;16.10;;;7.30;;
1563;SDS011;775;51.958;7.976;2023-03-01T00:23:37;15.23;;;7.30;;
1563;SDS011;775;51.958;7.976;2023-03-01T00:26:05;15.20;;;7.00;;
1563;SDS011;775;51.958;7.976;2023-03-01T00:28:32;15.83;;;7.33;;
1563;SDS011;775;51.958;7.976;2023-03-01T00:31:02;16.33;;;7.43;;
1563;SDS011;775;51.958;7.976;2023-03-01T00:33:31;15.93;;;7.43;;
1563;SDS011;775;51.958;7.976;2023-03-01T00:35:58;18.10;;;7.80;;
1563;SDS011;775;51.958;7.976;2023-03-01T00:38:26;14.80;;;6.73;;
1563;SDS011;775;51.958;7.976;2023-03-01T00:40:53;15.60;;;7.40;;
1563;SDS011;775;51.958;7.976;2023-03-01T00:43:20;13.80;;;6.63;;
1563;SDS011;775;51.958;7.976;2023-03-01T00:45:47;15.70;;;7.43;;
1563;SDS011;775;51.958;7.976;2023-03-01T00:48:14;18.17;;;7.90;;
1563;SDS011;775;51.958;7.976;2023-03-01T00:50:43;15.20;;;6.87;;
1563;SDS011;775;51.958;7.976;2023-03-01T00:53:10;14.60;;;6.60;;
1563;SDS011;775;51.958;7.976;2023-03-01T00:55:37;16.00;;;7.80;;
1563;SDS011;775;51.958;7.976;2023-03-01T00:58:04;15.93;;;7.70;;
1563;SDS011;775;51.958;7.976;2023-03-01T01:00:31;16.90;;;7.20;;
1563;SDS011;775;51.958;7.976;2023-03-01T01:02:58;16.37;;;7.53;;
1563;SDS011;775;51.958;7.976;2023-03-01T01:05:25;15.50;;;7.53;;
1563;SDS011;775;51.958;7.976;2023-03-01T01:07:54;14.73;;;7.23;;
1563;SDS011;775;51.958;7.976;2023-03-01T01:10:21;15.90;;;7.40;;
1563;SDS011;775;51.958;7.976;2023-03-01T01:12:48;15.97;;;7.83;;
1563;SDS011;775;51.958;7.976;2023-03-01T01:15:15;18.17;;;6.93;;
1563;SDS011;775;51.958;7.976;2023-03-01T01:17:42;13.87;;;5.80;;
1563;SDS011;775;51.958;7.976;2023-03-01T01:20:10;15.70;;;5.80;;
1563;SDS011;775;51.958;7.976;2023-03-01T01:22:37;14.07;;;6.63;;
1563;SDS011;775;51.958;7.976;2023-03-01T01:25:06;13.33;;;5.97;;
1563;SDS011;775;51.958;7.976;2023-03-01T01:27:33;13.87;;;6.00;;
1563;SDS011;775;51.958;7.976;2023-03-01T01:30:00;15.20;;;6.20;;
1563;SDS011;775;51.958;7.976;2023-03-01T01:32:28;16.20;;;6.60;;
1563;SDS011;775;51.958;7.976;2023-03-01T01:34:55;14.53;;;6.40;;
1563;SDS011;775;51.958;7.976;2023-03-01T01:37:22;16.40;;;6.70;;
1563;SDS011;775;51.958;7.976;2023-03-01T01:39:56;16.07;;;6.27;;
1563;SDS011;775;51.958;7.976;2023-03-01T01:42:24;15.90;;;6.13;;
1563;SDS011;775;51.958;7.976;2023-03-01T01:47:33;17.93;;;6.73;;
1563;SDS011;775;51.958;7.976;2023-03-01T01:50:00;14.30;;;6.43;;
1563;SDS011;775;51.958;7.976;2023-03-01T01:52:29;14.60;;;6.20;;
1563;SDS011;775;51.958;7.976;2023-03-01T01:54:59;16.53;;;5.93;;
1563;SDS011;775;51.958;7.976;2023-03-01T01:57:32;16.57;;;6.00;;
1563;SDS011;775;51.958;7.976;2023-03-01T02:00:02;13.23;;;5.60;;
1563;SDS011;775;51.958;7.976;2023-03-01T02:02:30;13.90;;;5.70;;
1563;SDS011;775;51.958;7.976;2023-03-01T02:05:00;15.73;;;6.50;;
1563;SDS011;775;51.958;7.976;2023-03-01T02:07:28;14.00;;;6.50;;
1563;SDS011;775;51.958;7.976;2023-03-01T02:09:56;14.87;;;6.30;;
1563;SDS011;775;51.958;7.976;2023-03-01T02:12:24;17.83;;;6.73;;
1563;SDS011;775;51.958;7.976;2023-03-01T02:14:52;15.63;;;6.50;;
1563;SDS011;775;51.958;7.976;2023-03-01T02:17:19;16.40;;;6.47;;
1563;SDS011;775;51.958;7.976;2023-03-01T02:19:51;16.27;;;5.80;;
1563;SDS011;775;51.958;7.976;2023-03-01T02:22:22;13.23;;;6.07;;
1563;SDS011;775;51.958;7.976;2023-03-01T02:24:52;15.60;;;6.00;;
1563;SDS011;775;51.958;7.976;2023-03-01T02:27:23;16.03;;;7.13;;
1563;SDS011;775;51.958;7.976;2023-03-01T02:29:53;14.07;;;6.07;;
1563;SDS011;775;51.958;7.976;2023-03-01T02:32:21;15.93;;;6.33;;
1563;SDS011;775;51.958;7.976;2023-03-01T02:34:50;16.30;;;6.70;;
1563;SDS011;775;51.958;7.976;2023-03-01T02:37:17;15.07;;;6.63;;
1563;SDS011;775;51.958;7.976;2023-03-01T02:39:50;13.77;;;5.90;;
1563;SDS011;775;51.958;7.976;2023-03-01T02:42:22;14.43;;;6.50;;
1563;SDS011;775;51.958;7.976;2023-03-01T02:44:50;16.03;;;6.60;;
1563;SDS011;775;51.958;7.976;2023-03-01T02:47:20;14.37;;;5.77;;
1563;SDS011;775;51.958;7.976;2023-03-01T02:49:48;15.67;;;8.23;;
1563;SDS011;775;51.958;7.976;2023-03-01T02:55:04;14.43;;;6.73;;
1563;SDS011;775;51.958;7.976;2023-03-01T02:57:33;13.23;;;6.10;;
1563;SDS011;775;51.958;7.976;2023-03-01T03:00:03;14.57;;;6.30;;
1563;SDS011;775;51.958;7.976;2023-03-01T03:02:34;14.87;;;6.63;;
1563;SDS011;775;51.958;7.976;2023-03-01T03:05:05;14.60;;;5.80;;
1563;SDS011;775;51.958;7.976;2023-03-01T03:07:33;15.80;;;6.03;;
1563;SDS011;775;51.958;7.976;2023-03-01T03:10:00;16.27;;;6.73;;
1563;SDS011;775;51.958;7.976;2023-03-01T03:12:28;16.00;;;6.17;;
1563;SDS011;775;51.958;7.976;2023-03-01T03:14:55;17.63;;;6.10;;
1563;SDS011;775;51.958;7.976;2023-03-01T03:17:22;15.23;;;6.60;;
1563;SDS011;775;51.958;7.976;2023-03-01T03:19:50;16.17;;;6.60;;
1563;SDS011;775;51.958;7.976;2023-03-01T03:22:18;16.20;;;6.30;;
1563;SDS011;775;51.958;7.976;2023-03-01T03:24:45;14.23;;;5.80;;
1563;SDS011;775;51.958;7.976;2023-03-01T03:27:12;13.90;;;6.13;;
1563;SDS011;775;51.958;7.976;2023-03-01T03:29:39;14.33;;;5.93;;
1563;SDS011;775;51.958;7.976;2023-03-01T03:32:06;16.87;;;6.77;;
1563;SDS011;775;51.958;7.976;2023-03-01T03:34:33;13.90;;;6.60;;
1563;SDS011;775;51.958;7.976;2023-03-01T03:37:01;16.50;;;7.13;;
1563;SDS011;775;51.958;7.976;2023-03-01T03:39:28;14.60;;;6.00;;
1563;SDS011;775;51.958;7.976;2023-03-01T03:41:59;13.67;;;7.00;;
1563;SDS011;775;51.958;7.976;2023-03-01T03:44:26;14.50;;;6.67;;
1563;SDS011;775;51.958;7.976;2023-03-01T03:46:53;14.57;;;7.10;;
1563;SDS011;775;51.958;7.976;2023-03-01T03:49:21;13.63;;;6.73;;
1563;SDS011;775;51.958;7.976;2023-03-01T03:51:48;14.53;;;6.80;;
1563;SDS011;775;51.958;7.976;2023-03-01T03:54:16;17.47;;;6.67;;
1563;SDS011;775;51.958;7.976;2023-03-01T03:56:43;13.70;;;5.90;;
1563;SDS011;775;51.958;7.976;2023-03-01T03:59:10;14.40;;;5.90;;
1563;SDS011;775;51.958;7.976;2023-03-01T04:01:37;14.40;;;6.73;;
1563;SDS011;775;51.958;7.976;2023-03-01T04:04:04;16.30;;;6.20;;
1563;SDS011;775;51.958;7.976;2023-03-01T04:06:32;15.57;;;6.73;;
1563;SDS011;775;51.958;7.976;2023-03-01T04:08:59;13.17;;;5.60;;
1563;SDS011;775;51.958;7.976;2023-03-01T04:11:29;14.27;;;5.80;;
1563;SDS011;775;51.958;7.976;2023-03-01T04:13:57;16.47;;;7.03;;
1563;SDS011;775;51.958;7.976;2023-03-01T04:16:25;14.37;;;6.73;;
1563;SDS011;775;51.958;7.976;2023-03-01T04:18:52;14.47;;;6.73;;
1563;SDS011;775;51.958;7.976;2023-03-01T04:21:19;14.80;;;6.23;;
1563;SDS011;775;51.958;7.976;2023-03-01T04:23:46;12.83;;;5.90;;
1563;SDS011;775;51.958;7.976;2023-03-01T04:26:17;14.03;;;6.50;;
1563;SDS011;775;51.958;7.976;2023-03-01T04:28:46;14.00;;;6.40;;
1563;SDS011;775;51.958;7.976;2023-03-01T04:31:16;18.73;;;7.27;;
1563;SDS011;775;51.958;7.976;2023-03-01T04:33:46;16.47;;;6.40;;
1563;SDS011;775;51.958;7.976;2023-03-01T04:36:14;13.43;;;5.97;;
1563;SDS011;775;51.958;7.976;2023-03-01T04:38:41;13.80;;;6.40;;
1563;SDS011;775;51.958;7.976;2023-03-01T04:41:12;15.83;;;7.00;;
1563;SDS011;775;51.958;7.976;2023-03-01T04:43:39;14.50;;;6.03;;
1563;SDS011;775;51.958;7.976;2023-03-01T04:46:08;13.60;;;6.00;;
1563;SDS011;775;51.958;7.976;2023-03-01T04:48:38;14.63;;;6.20;;
1563;SDS011;775;51.958;7.976;2023-03-01T04:51:05;14.10;;;5.73;;
1563;SDS011;775;51.958;7.976;2023-03-01T04:53:33;13.70;;;5.80;;
1563;SDS011;775;51.958;7.976;2023-03-01T04:56:01;16.43;;;6.83;;
1563;SDS011;775;51.958;7.976;2023-03-01T04:58:28;14.37;;;5.73;;
1563;SDS011;775;51.958;7.976;2023-03-01T05:00:55;14.43;;;6.70;;
1563;SDS011;775;51.958;7.976;2023-03-01T05:03:24;14.90;;;5.80;;
1563;SDS011;775;51.958;7.976;2023-03-01T05:05:52;15.43;;;6.07;;
1563;SDS011;775;51.958;7.976;2023-03-01T05:08:19;14.20;;;6.60;;
1563;SDS011;775;51.958;7.976;2023-03-01T05:10:47;15.70;;;6.63;;
1563;SDS011;775;51.958;7.976;2023-03-01T05:13:15;15.57;;;6.13;;
1563;SDS011;775;51.958;7.976;2023-03-01T05:15:46;15.17;;;7.13;;
1563;SDS011;775;51.958;7.976;2023-03-01T05:18:13;15.70;;;6.87;;
1563;SDS011;775;51.958;7.976;2023-03-01T05:20:42;16.13;;;7.83;;
1563;SDS011;775;51.958;7.976;2023-03-01T05:23:10;18.87;;;7.37;;
1563;SDS011;775;51.958;7.976;2023-03-01T05:25:37;14.10;;;6.80;;
1563;SDS011;775;51.958;7.976;2023-03-01T05:28:06;14.73;;;7.20;;
1563;SDS011;775;51.958;7.976;2023-03-01T05:30:34;15.57;;;7.63;;
1563;SDS011;775;51.958;7.976;2023-03-01T05:33:04;14.07;;;6.70;;
1563;SDS011;775;51.958;7.976;2023-03-01T05:35:38;16.77;;;8.50;;
1563;SDS011;775;51.958;7.976;2023-03-01T05:38:06;14.13;;;6.83;;
1563;SDS011;775;51.958;7.976;2023-03-01T05:40:33;14.00;;;6.30;;
1563;SDS011;775;51.958;7.976;2023-03-01T05:43:01;15.57;;;6.20;;
1563;SDS011;775;51.958;7.976;2023-03-01T05:45:30;15.70;;;6.80;;
1563;SDS011;775;51.958;7.976;2023-03-01T05:47:58;15.33;;;5.80;;
1563;SDS011;775;51.958;7.976;2023-03-01T05:50:26;16.87;;;6.13;;
1563;SDS011;775;51.958;7.976;2023-03-01T05:52:56;16.77;;;6.60;;
1563;SDS011;775;51.958;7.976;2023-03-01T05:55:25;18.00;;;5.53;;
1563;SDS011;775;51.958;7.976;2023-03-01T05:57:53;15.27;;;6.77;;
1563;SDS011;775;51.958;7.976;2023-03-01T06:00:20;14.30;;;6.47;;
1563;SDS011;775;51.958;7.976;2023-03-01T06:02:48;17.10;;;7.03;;
1563;SDS011;775;51.958;7.976;2023-03-01T06:05:16;14.63;;;6.17;;
1563;SDS011;775;51.958;7.976;2023-03-01T06:07:44;15.50;;;7.33;;
1563;SDS011;775;51.958;7.976;2023-03-01T06:10:11;15.40;;;7.20;;
1563;SDS011;775;51.958;7.976;2023-03-01T06:12:40;16.83;;;7.13;;
1563;SDS011;775;51.958;7.976;2023-03-01T06:15:09;16.00;;;7.70;;
1563;SDS011;775;51.958;7.976;2023-03-01T06:17:37;17.17;;;6.93;;
1563;SDS011;775;51.958;7.976;2023-03-01T06:20:06;16.03;;;7.07;;
1563;SDS011;775;51.958;7.976;2023-03-01T06:22:34;15.90;;;7.77;;
1563;SDS011;775;51.958;7.976;2023-03-01T06:25:01;16.13;;;7.90;;
1563;SDS011;775;51.958;7.976;2023-03-01T06:27:28;15.70;;;8.50;;
1563;SDS011;775;51.958;7.976;2023-03-01T06:29:56;17.20;;;8.00;;
1563;SDS011;775;51.958;7.976;2023-03-01T06:32:24;17.67;;;7.73;;
1563;SDS011;775;51.958;7.976;2023-03-01T06:34:51;16.43;;;8.67;;
1563;SDS011;775;51.958;7.976;2023-03-01T06:37:18;16.40;;;9.03;;
1563;SDS011;775;51.958;7.976;2023-03-01T06:39:45;18.47;;;8.37;;
1563;SDS011;775;51.958;7.976;2023-03-01T06:42:12;17.00;;;8.27;;
1563;SDS011;775;51.958;7.976;2023-03-01T06:44:39;16.47;;;8.70;;
1563;SDS011;775;51.958;7.976;2023-03-01T06:47:07;16.37;;;8.47;;
1563;SDS011;775;51.958;7.976;2023-03-01T06:49:34;20.07;;;8.90;;
1563;SDS011;775;51.958;7.976;2023-03-01T06:52:01;16.20;;;8.63;;
1563;SDS011;775;51.958;7.976;2023-03-01T06:54:29;17.20;;;9.40;;
1563;SDS011;775;51.958;7.976;2023-03-01T06:56:56;15.93;;;9.20;;
1563;SDS011;775;51.958;7.976;2023-03-01T06:59:23;16.23;;;7.80;;
1563;SDS011;775;51.958;7.976;2023-03-01T07:01:50;16.83;;;9.07;;
1563;SDS011;775;51.958;7.976;2023-03-01T07:04:18;20.23;;;8.70;;
1563;SDS011;775;51.958;7.976;2023-03-01T07:06:45;19.90;;;9.67;;
1563;SDS011;775;51.958;7.976;2023-03-01T07:09:19;16.70;;;8.90;;
1563;SDS011;775;51.958;7.976;2023-03-01T07:11:47;17.83;;;8.10;;
1563;SDS011;775;51.958;7.976;2023-03-01T07:14:14;14.93;;;7.30;;
1563;SDS011;775;51.958;7.976;2023-03-01T07:16:41;20.30;;;8.83;;
1563;SDS011;775;51.958;7.976;2023-03-01T07:19:08;16.07;;;7.53;;
1563;SDS011;775;51.958;7.976;2023-03-01T07:21:37;17.87;;;7.67;;
1563;SDS011;775;51.958;7.976;2023-03-01T07:24:05;18.60;;;8.20;;
1563;SDS011;775;51.958;7.976;2023-03-01T07:26:32;16.70;;;7.63;;
1563;SDS011;775;51.958;7.976;2023-03-01T07:28:59;16.20;;;7.23;;
1563;SDS011;775;51.958;7.976;2023-03-01T07:31:26;16.33;;;6.87;;
1563;SDS011;775;51.958;7.976;2023-03-01T07:33:53;16.57;;;6.43;;
1563;SDS011;775;51.958;7.976;2023-03-01T07:36:20;15.03;;;7.10;;
1563;SDS011;775;51.958;7.976;2023-03-01T07:38:49;18.40;;;8.27;;
1563;SDS011;775;51.958;7.976;2023-03-01T07:41:16;21.23;;;8.83;;
1563;SDS011;775;51.958;7.976;2023-03-01T07:43:43;23.17;;;9.70;;
1563;SDS011;775;51.958;7.976;2023-03-01T07:46:10;22.10;;;9.60;;
1563;SDS011;775;51.958;7.976;2023-03-01T07:48:37;26.10;;;11.33;;
1563;SDS011;775;51.958;7.976;2023-03-01T07:51:05;29.00;;;10.70;;
1563;SDS011;775;51.958;7.976;2023-03-01T07:53:32;22.53;;;11.33;;
1563;SDS011;775;51.958;7.976;2023-03-01T07:56:02;25.30;;;12.10;;
1563;SDS011;775;51.958;7.976;2023-03-01T07:58:29;23.50;;;11.37;;
1563;SDS011;775;51.958;7.976;2023-03-01T08:00:56;17.50;;;8.40;;
1563;SDS011;775;51.958;7.976;2023-03-01T08:03:23;18.47;;;8.90;;
1563;SDS011;775;51.958;7.976;2023-03-01T08:05:50;16.37;;;7.40;;
1563;SDS011;775;51.958;7.976;2023-03-01T08:08:17;17.43;;;7.00;;
1563;SDS011;775;51.958;7.976;2023-03-01T08:10:44;17.37;;;6.43;;
1563;SDS011;775;51.958;7.976;2023-03-01T08:13:12;21.90;;;6.93;;
1563;SDS011;775;51.958;7.976;2023-03-01T08:15:39;18.07;;;7.10;;
1563;SDS011;775;51.958;7.976;2023-03-01T08:18:07;19.57;;;7.43;;
1563;SDS011;775;51.958;7.976;2023-03-01T08:20:34;16.70;;;6.53;;
1563;SDS011;775;51.958;7.976;2023-03-01T08:23:01;15.83;;;6.40;;
1563;SDS011;775;51.958;7.976;2023-03-01T08:25:28;14.77;;;6.93;;
1563;SDS011;775;51.958;7.976;2023-03-01T08:27:55;18.77;;;6.90;;
1563;SDS011;775;51.958;7.976;2023-03-01T08:30:23;16.20;;;6.87;;
1563;SDS011;775;51.958;7.976;2023-03-01T08:32:50;18.60;;;8.17;;
1563;SDS011;775;51.958;7.976;2023-03-01T08:35:18;16.67;;;8.40;;
1563;SDS011;775;51.958;7.976;2023-03-01T08:37:45;18.57;;;7.73;;
1563;SDS011;775;51.958;7.976;2023-03-01T08:40:13;19.10;;;7.60;;
1563;SDS011;775;51.958;7.976;2023-03-01T08:42:40;16.70;;;7.77;;
1563;SDS011;775;51.958;7.976;2023-03-01T08:45:08;17.03;;;8.03;;
1563;SDS011;775;51.958;7.976;2023-03-01T08:47:36;18.43;;;8.53;;
1563;SDS011;775;51.958;7.976;2023-03-01T08:50:04;18.53;;;9.23;;
1563;SDS011;775;51.958;7.976;2023-03-01T08:52:31;17.00;;;7.90;;
1563;SDS011;775;51.958;7.976;2023-03-01T08:54:58;18.00;;;7.13;;
1563;SDS011;775;51.958;7.976;2023-03-01T08:57:26;18.17;;;8.13;;
1563;SDS011;775;51.958;7.976;2023-03-01T08:59:54;18.47;;;7.63;;
1563;SDS011;775;51.958;7.976;2023-03-01T09:02:21;18.97;;;7.83;;
1563;SDS011;775;51.958;7.976;2023-03-01T09:04:49;19.40;;;7.17;;
1563;SDS011;775;51.958;7.976;2023-03-01T09:07:17;15.33;;;7.33;;
1563;SDS011;775;51.958;7.976;2023-03-01T09:09:44;17.13;;;8.00;;
1563;SDS011;775;51.958;7.976;2023-03-01T09:12:11;17.97;;;8.00;;
1563;SDS011;775;51.958;7.976;2023-03-01T09:14:38;19.30;;;8.10;;
1563;SDS011;775;51.958;7.976;2023-03-01T09:17:06;17.33;;;8.00;;
1563;SDS011;775;51.958;7.976;2023-03-01T09:19:33;20.43;;;8.80;;
1563;SDS011;775;51.958;7.976;2023-03-01T09:22:02;19.00;;;8.67;;
1563;SDS011;775;51.958;7.976;2023-03-01T09:24:29;15.93;;;7.00;;
1563;SDS011;775;51.958;7.976;2023-03-01T09:26:56;18.30;;;8.00;;
1563;SDS011;775;51.958;7.976;2023-03-01T09:29:23;18.30;;;8.27;;
1563;SDS011;775;51.958;7.976;2023-03-01T09:31:51;18.23;;;8.27;;
1563;SDS011;775;51.958;7.976;2023-03-01T09:34:20;19.40;;;7.27;;
1563;SDS011;775;51.958;7.976;2023-03-01T09:36:48;19.67;;;8.40;;
1563;SDS011;775;51.958;7.976;2023-03-01T09:39:17;16.10;;;7.60;;
1563;SDS011;775;51.958;7.976;2023-03-01T09:41:46;17.70;;;7.60;;
1563;SDS011;775;51.958;7.976;2023-03-01T09:44:18;16.67;;;8.07;;
1563;SDS011;775;51.958;7.976;2023-03-01T09:46:47;18.00;;;7.40;;
1563;SDS011;775;51.958;7.976;2023-03-01T09:49:15;17.70;;;7.63;;
1563;SDS011;775;51.958;7.976;2023-03-01T09:51:46;21.70;;;8.57;;
1563;SDS011;775;51.958;7.976;2023-03-01T09:54:18;15.77;;;8.03;;
1563;SDS011;775;51.958;7.976;2023-03-01T09:56:46;16.70;;;7.53;;
1563;SDS011;775;51.958;7.976;2023-03-01T09:59:17;17.43;;;7.83;;
1563;SDS011;775;51.958;7.976;2023-03-01T10:01:46;16.63;;;7.83;;
1563;SDS011;775;51.958;7.976;2023-03-01T10:04:23;21.20;;;7.20;;
1563;SDS011;775;51.958;7.976;2023-03-01T10:06:54;14.90;;;6.90;;
1563;SDS011;775;51.958;7.976;2023-03-01T10:09:26;18.40;;;7.00;;
1563;SDS011;775;51.958;7.976;2023-03-01T10:11:56;15.37;;;6.20;;
1563;SDS011;775;51.958;7.976;2023-03-01T10:14:27;15.70;;;6.73;;
1563;SDS011;775;51.958;7.976;2023-03-01T10:16:57;19.80;;;7.10;;
1563;SDS011;775;51.958;7.976;2023-03-01T10:19:29;16.53;;;7.57;;
1563;SDS011;775;51.958;7.976;2023-03-01T10:21:57;18.00;;;7.23;;
1563;SDS011;775;51.958;7.976;2023-03-01T10:24:28;21.80;;;8.00;;
1563;SDS011;775;51.958;7.976;2023-03-01T10:27:00;14.40;;;6.20;;
1563;SDS011;775;51.958;7.976;2023-03-01T10:29:30;18.50;;;7.30;;
1563;SDS011;775;51.958;7.976;2023-03-01T10:31:58;16.27;;;6.50;;
1563;SDS011;775;51.958;7.976;2023-03-01T10:34:31;16.40;;;6.53;;
1563;SDS011;775;51.958;7.976;2023-03-01T10:37:00;15.03;;;6.60;;
1563;SDS011;775;51.958;7.976;2023-03-01T10:39:29;16.53;;;6.90;;
1563;SDS011;775;51.958;7.976;2023-03-01T10:41:58;17.50;;;6.60;;
1563;SDS011;775;51.958;7.976;2023-03-01T10:44:39;19.73;;;8.10;;
1563;SDS011;775;51.958;7.976;2023-03-01T10:47:12;16.60;;;6.90;;
1563;SDS011;775;51.958;7.976;2023-03-01T10:49:42;14.13;;;6.47;;
1563;SDS011;775;51.958;7.976;2023-03-01T10:52:18;16.17;;;7.40;;
1563;SDS011;775;51.958;7.976;2023-03-01T10:54:52;15.30;;;7.70;;
1563;SDS011;775;51.958;7.976;2023-03-01T10:57:33;16.90;;;7.00;;
1563;SDS011;775;51.958;7.976;2023-03-01T11:00:19;15.07;;;6.20;;
1563;SDS011;775;51.958;7.976;2023-03-01T11:02:47;16.13;;;6.97;;
1563;SDS011;775;51.958;7.976;2023-03-01T11:05:21;13.03;;;5.03;;
1563;SDS011;775;51.958;7.976;2023-03-01T11:07:50;16.40;;;6.53;;
1563;SDS011;775;51.958;7.976;2023-03-01T11:10:20;15.33;;;6.10;;
1563;SDS011;775;51.958;7.976;2023-03-01T11:12:47;17.07;;;6.73;;
1563;SDS011;775;51.958;7.976;2023-03-01T11:15:24;13.73;;;5.37;;
1563;SDS011;775;51.958;7.976;2023-03-01T11:17:51;15.37;;;6.40;;
1563;SDS011;775;51.958;7.976;2023-03-01T11:20:23;13.77;;;5.20;;
1563;SDS011;775;51.958;7.976;2023-03-01T11:22:52;13.97;;;6.50;;
1563;SDS011;775;51.958;7.976;2023-03-01T11:25:21;15.20;;;6.27;;
1563;SDS011;775;51.958;7.976;2023-03-01T11:27:50;15.90;;;6.70;;
1563;SDS011;775;51.958;7.976;2023-03-01T11:30:19;15.30;;;5.47;;
1563;SDS011;775;51.958;7.976;2023-03-01T11:32:50;15.00;;;5.10;;
1563;SDS011;775;51.958;7.976;2023-03-01T11:35:19;15.10;;;6.40;;
1563;SDS011;775;51.958;7.976;2023-03-01T11:37:51;17.13;;;6.30;;
1563;SDS011;775;51.958;7.976;2023-03-01T11:40:23;15.40;;;5.77;;
1563;SDS011;775;51.958;7.976;2023-03-01T11:42:56;15.40;;;6.50;;
1563;SDS011;775;51.958;7.976;2023-03-01T11:45:29;14.77;;;6.30;;
1563;SDS011;775;51.958;7.976;2023-03-01T11:48:02;15.80;;;6.40;;
1563;SDS011;775;51.958;7.976;2023-03-01T11:50:35;14.83;;;5.57;;
1563;SDS011;775;51.958;7.976;2023-03-01T11:53:13;13.53;;;6.00;;
1563;SDS011;775;51.958;7.976;2023-03-01T11:55:50;15.43;;;5.90;;
1563;SDS011;775;51.958;7.976;2023-03-01T11:58:27;15.13;;;6.33;;
1563;SDS011;775;51.958;7.976;2023-03-01T12:01:02;14.73;;;6.30;;
1563;SDS011;775;51.958;7.976;2023-03-01T12:03:38;15.57;;;6.10;;
1563;SDS011;775;51.958;7.976;2023-03-01T12:06:21;17.70;;;7.13;;
1563;SDS011;775;51.958;7.976;2023-03-01T12:08:54;14.80;;;5.97;;
1563;SDS011;775;51.958;7.976;2023-03-01T12:11:27;16.63;;;7.13;;
1563;SDS011;775;51.958;7.976;2023-03-01T12:14:00;15.97;;;6.83;;
1563;SDS011;775;51.958;7.976;2023-03-01T12:16:40;13.10;;;6.17;;
1563;SDS011;775;51.958;7.976;2023-03-01T12:19:16;14.97;;;6.30;;
1563;SDS011;775;51.958;7.976;2023-03-01T12:21:58;17.30;;;7.40;;
1563;SDS011;775;51.958;7.976;2023-03-01T12:24:35;13.97;;;6.10;;
1563;SDS011;775;51.958;7.976;2023-03-01T12:27:12;14.80;;;6.40;;
1563;SDS011;775;51.958;7.976;2023-03-01T12:29:45;16.30;;;7.10;;
1563;SDS011;775;51.958;7.976;2023-03-01T12:32:19;17.50;;;7.03;;
1563;SDS011;775;51.958;7.976;2023-03-01T12:37:31;16.17;;;6.90;;
1563;SDS011;775;51.958;7.976;2023-03-01T12:40:13;14.70;;;6.60;;
1563;SDS011;775;51.958;7.976;2023-03-01T12:42:44;15.73;;;7.03;;
1563;SDS011;775;51.958;7.976;2023-03-01T12:45:25;15.63;;;6.40;;
1563;SDS011;775;51.958;7.976;2023-03-01T12:47:58;15.27;;;7.83;;
1563;SDS011;775;51.958;7.976;2023-03-01T12:50:32;16.70;;;7.67;;
1563;SDS011;775;51.958;7.976;2023-03-01T12:53:03;15.70;;;6.60;;
1563;SDS011;775;51.958;7.976;2023-03-01T12:55:31;14.07;;;6.33;;
1563;SDS011;775;51.958;7.976;2023-03-01T12:58:06;14.47;;;6.40;;
1563;SDS011;775;51.958;7.976;2023-03-01T13:00:37;15.60;;;6.90;;
1563;SDS011;775;51.958;7.976;2023-03-01T13:03:10;15.13;;;5.90;;
1563;SDS011;775;51.958;7.976;2023-03-01T13:05:39;13.43;;;5.37;;
1563;SDS011;775;51.958;7.976;2023-03-01T13:08:10;14.57;;;6.20;;
1563;SDS011;775;51.958;7.976;2023-03-01T13:10:40;14.80;;;5.43;;
1563;SDS011;775;51.958;7.976;2023-03-01T13:13:18;14.40;;;5.90;;
1563;SDS011;775;51.958;7.976;2023-03-01T13:15:46;13.87;;;4.90;;
1563;SDS011;775;51.958;7.976;2023-03-01T13:18:32;13.80;;;5.00;;
1563;SDS011;775;51.958;7.976;2023-03-01T13:21:00;13.90;;;4.97;;
1563;SDS011;775;51.958;7.976;2023-03-01T13:23:29;14.67;;;6.27;;
1563;SDS011;775;51.958;7.976;2023-03-01T13:26:00;12.70;;;5.10;;
1563;SDS011;775;51.958;7.976;2023-03-01T13:28:39;13.77;;;4.80;;
1563;SDS011;775;51.958;7.976;2023-03-01T13:31:07;13.47;;;5.33;;
1563;SDS011;775;51.958;7.976;2023-03-01T13:33:42;16.07;;;5.30;;
1563;SDS011;775;51.958;7.976;2023-03-01T13:36:09;11.80;;;4.83;;
1563;SDS011;775;51.958;7.976;2023-03-01T13:38:41;15.50;;;5.30;;
1563;SDS011;775;51.958;7.976;2023-03-01T13:41:11;14.70;;;5.97;;
1563;SDS011;775;51.958;7.976;2023-03-01T13:43:40;13.13;;;4.77;;
1563;SDS011;775;51.958;7.976;2023-03-01T13:46:09;13.40;;;4.40;;
1563;SDS011;775;51.958;7.976;2023-03-01T13:48:37;11.10;;;4.03;;
1563;SDS011;775;51.958;7.976;2023-03-01T13:51:05;15.70;;;5.07;;
1563;SDS011;775;51.958;7.976;2023-03-01T13:53:33;14.57;;;5.63;;
1563;SDS011;775;51.958;7.976;2023-03-01T13:56:02;13.67;;;5.33;;
1563;SDS011;775;51.958;7.976;2023-03-01T13:58:30;14.70;;;5.30;;
1563;SDS011;775;51.958;7.976;2023-03-01T14:01:00;15.93;;;5.60;;
1563;SDS011;775;51.958;7.976;2023-03-01T14:03:27;12.40;;;4.70;;
1563;SDS011;775;51.958;7.976;2023-03-01T14:06:03;13.57;;;5.00;;
1563;SDS011;775;51.958;7.976;2023-03-01T14:08:32;15.90;;;5.70;;
1563;SDS011;775;51.958;7.976;2023-03-01T14:11:15;15.20;;;7.53;;
1563;SDS011;775;51.958;7.976;2023-03-01T14:13:58;14.93;;;5.40;;
1563;SDS011;775;51.958;7.976;2023-03-01T14:16:32;13.30;;;5.30;;
1563;SDS011;775;51.958;7.976;2023-03-01T14:19:06;14.93;;;5.67;;
1563;SDS011;775;51.958;7.976;2023-03-01T14:21:36;14.97;;;5.40;;
1563;SDS011;775;51.958;7.976;2023-03-01T14:24:03;14.27;;;5.63;;
1563;SDS011;775;51.958;7.976;2023-03-01T14:26:31;13.47;;;5.07;;
1563;SDS011;775;51.958;7.976;2023-03-01T14:28:58;15.20;;;5.90;;
1563;SDS011;775;51.958;7.976;2023-03-01T14:31:31;12.73;;;4.90;;
1563;SDS011;775;51.958;7.976;2023-03-01T14:33:59;14.30;;;4.90;;
1563;SDS011;775;51.958;7.976;2023-03-01T14:36:27;13.40;;;4.80;;
1563;SDS011;775;51.958;7.976;2023-03-01T14:38:54;13.70;;;5.00;;
1563;SDS011;775;51.958;7.976;2023-03-01T14:41:23;12.63;;;4.90;;
1563;SDS011;775;51.958;7.976;2023-03-01T14:43:51;16.20;;;5.50;;
1563;SDS011;775;51.958;7.976;2023-03-01T14:46:19;16.77;;;5.47;;
1563;SDS011;775;51.958;7.976;2023-03-01T14:48:49;12.50;;;5.60;;
1563;SDS011;775;51.958;7.976;2023-03-01T14:51:16;13.13;;;4.50;;
1563;SDS011;775;51.958;7.976;2023-03-01T14:53:43;13.73;;;4.70;;
1563;SDS011;775;51.958;7.976;2023-03-01T14:56:12;13.30;;;5.20;;
1563;SDS011;775;51.958;7.976;2023-03-01T14:58:39;13.70;;;4.80;;
1563;SDS011;775;51.958;7.976;2023-03-01T15:01:07;14.50;;;5.40;;
1563;SDS011;775;51.958;7.976;2023-03-01T15:03:38;14.00;;;5.73;;
1563;SDS011;775;51.958;7.976;2023-03-01T15:06:09;12.80;;;4.60;;
1563;SDS011;775;51.958;7.976;2023-03-01T15:08:38;12.67;;;4.90;;
1563;SDS011;775;51.958;7.976;2023-03-01T15:11:16;13.23;;;4.73;;
1563;SDS011;775;51.958;7.976;2023-03-01T15:13:45;13.20;;;4.50;;
1563;SDS011;775;51.958;7.976;2023-03-01T15:16:12;12.63;;;4.33;;
1563;SDS011;775;51.958;7.976;2023-03-01T15:18:43;13.77;;;5.20;;
1563;SDS011;775;51.958;7.976;2023-03-01T15:21:17;13.30;;;5.10;;
1563;SDS011;775;51.958;7.976;2023-03-01T15:23:47;16.80;;;4.93;;
1563;SDS011;775;51.958;7.976;2023-03-01T15:26:25;12.80;;;4.20;;
1563;SDS011;775;51.958;7.976;2023-03-01T15:28:52;13.67;;;5.70;;
1563;SDS011;775;51.958;7.976;2023-03-01T15:31:23;12.30;;;4.97;;
1563;SDS011;775;51.958;7.976;2023-03-01T15:33:51;14.03;;;6.07;;
1563;SDS011;775;51.958;7.976;2023-03-01T15:36:33;13.63;;;5.97;;